createdAt,value
2023-03-12T00:01:23.447Z,69.80
2023-03-12T00:03:51.909Z,68.90
2023-03-12T00:06:22.350Z,73.60
2023-03-12T00:09:06.679Z,76.70
2023-03-12T00:11:34.560Z,73.60
2023-03-12T00:14:04.852Z,71.00
2023-03-12T00:16:38.872Z,72.20
2023-03-12T00:19:09.049Z,71.80
2023-03-12T00:21:38.266Z,78.80
2023-03-12T00:24:12.022Z,75.60
2023-03-12T00:26:43.110Z,70.90
2023-03-12T00:29:11.118Z,69.90
2023-03-12T00:31:51.738Z,69.40
2023-03-12T00:34:19.765Z,74.80
2023-03-12T00:37:04.196Z,79.30
2023-03-12T00:39:37.783Z,70.10
2023-03-12T00:42:06.274Z,70.00
2023-03-12T00:44:34.127Z,71.30
2023-03-12T00:47:02.162Z,76.00
2023-03-12T00:49:33.010Z,80.20
2023-03-12T00:52:00.851Z,76.60
2023-03-12T00:54:36.021Z,73.30
2023-03-12T00:57:18.666Z,73.30
2023-03-12T01:00:10.158Z,71.60
2023-03-12T01:02:41.518Z,81.00
2023-03-12T01:05:13.249Z,79.80
2023-03-12T01:07:44.377Z,73.50
2023-03-12T01:10:21.042Z,77.10
2023-03-12T01:12:51.438Z,74.10
2023-03-12T01:15:21.789Z,79.40
2023-03-12T01:17:55.617Z,81.10
2023-03-12T01:20:32.667Z,73.60
2023-03-12T01:23:07.968Z,75.00
2023-03-12T01:25:45.457Z,76.40
2023-03-12T01:28:22.774Z,75.70
2023-03-12T01:30:54.638Z,80.60
2023-03-12T01:33:28.756Z,75.60
2023-03-12T01:36:02.045Z,74.20
2023-03-12T01:38:30.075Z,75.20
2023-03-12T01:41:01.784Z,73.50
2023-03-12T01:43:31.982Z,80.80
2023-03-12T01:46:28.790Z,82.00
2023-03-12T01:49:02.756Z,79.80
2023-03-12T01:51:36.019Z,75.40
2023-03-12T01:54:19.141Z,71.80
2023-03-12T01:56:58.248Z,80.20
2023-03-12T01:59:31.899Z,77.90
2023-03-12T02:02:06.833Z,71.50
2023-03-12T02:04:37.411Z,70.80
2023-03-12T02:07:10.726Z,72.00
2023-03-12T02:09:54.046Z,78.30
2023-03-12T02:12:34.661Z,78.00
2023-03-12T02:15:09.027Z,70.90
2023-03-12T02:17:39.402Z,72.10
2023-03-12T02:20:16.171Z,74.80
2023-03-12T02:23:07.080Z,79.50
2023-03-12T02:25:44.925Z,84.80
2023-03-12T02:28:16.773Z,77.00
2023-03-12T02:30:47.687Z,76.60
2023-03-12T02:33:21.536Z,82.50
2023-03-12T02:35:56.622Z,83.20
2023-03-12T02:38:44.734Z,84.30
2023-03-12T02:41:30.637Z,72.70
2023-03-12T02:44:09.736Z,73.90
2023-03-12T02:46:44.489Z,74.60
2023-03-12T02:49:26.218Z,79.20
2023-03-12T02:51:57.563Z,74.10
2023-03-12T02:54:25.973Z,73.00
2023-03-12T02:57:01.463Z,72.70
2023-03-12T02:59:29.340Z,73.80
2023-03-12T03:01:58.765Z,80.90
2023-03-12T03:04:29.748Z,83.50
2023-03-12T03:06:57.675Z,78.50
2023-03-12T03:09:26.280Z,76.80
2023-03-12T03:11:54.142Z,73.00
2023-03-12T03:14:29.503Z,78.60
2023-03-12T03:16:57.335Z,82.80
2023-03-12T03:19:27.138Z,71.90
2023-03-12T03:22:04.416Z,71.80
2023-03-12T03:24:49.327Z,75.90
2023-03-12T03:27:20.257Z,81.10
2023-03-12T03:29:59.252Z,85.30
2023-03-12T03:32:49.774Z,80.40
2023-03-12T03:35:18.867Z,77.50
2023-03-12T03:37:49.762Z,74.80
2023-03-12T03:40:18.082Z,77.40
2023-03-12T03:42:50.964Z,82.80
2023-03-12T03:45:20.430Z,75.60
2023-03-12T03:47:51.441Z,77.30
2023-03-12T03:50:28.447Z,77.10
2023-03-12T03:52:59.167Z,82.60
2023-03-12T03:55:32.322Z,84.30
2023-03-12T03:58:16.269Z,76.20
2023-03-12T04:00:47.380Z,74.10
2023-03-12T04:03:18.362Z,74.10
2023-03-12T04:05:54.672Z,84.30
2023-03-12T04:08:25.277Z,82.80
2023-03-12T04:10:56.770Z,81.30
2023-03-12T04:13:24.649Z,81.90
2023-03-12T04:16:00.052Z,78.10
2023-03-12T04:18:30.196Z,84.50
2023-03-12T04:21:04.510Z,83.10
2023-03-12T04:23:32.441Z,82.30
2023-03-12T04:26:03.539Z,79.20
2023-03-12T04:28:33.819Z,74.50
2023-03-12T04:31:24.046Z,83.20
2023-03-12T04:33:57.618Z,80.40
2023-03-12T04:36:25.855Z,76.00
2023-03-12T04:39:07.549Z,79.40
2023-03-12T04:41:39.797Z,85.20
2023-03-12T04:44:12.739Z,86.20
2023-03-12T04:46:43.367Z,85.40
2023-03-12T04:49:26.349Z,83.00
2023-03-12T04:51:57.373Z,85.40
2023-03-12T04:54:34.250Z,79.90
2023-03-12T04:57:05.216Z,84.50
2023-03-12T04:59:45.170Z,84.80
2023-03-12T05:02:17.266Z,81.50
2023-03-12T05:04:51.060Z,84.50
2023-03-12T05:07:25.228Z,84.10
2023-03-12T05:09:53.111Z,83.60
2023-03-12T05:12:23.226Z,81.10
2023-03-12T05:14:56.884Z,82.10
2023-03-12T05:17:34.965Z,82.00
2023-03-12T05:20:12.502Z,82.00
2023-03-12T05:22:42.759Z,81.60
2023-03-12T05:25:12.561Z,81.40
2023-03-12T05:27:40.425Z,81.30
2023-03-12T05:30:09.709Z,81.00
2023-03-12T05:32:42.070Z,80.60
2023-03-12T05:35:11.856Z,80.40
2023-03-12T05:37:43.343Z,80.50
2023-03-12T05:40:14.788Z,80.20
2023-03-12T05:42:42.679Z,79.80
2023-03-12T05:45:11.538Z,79.40
2023-03-12T05:47:43.781Z,80.20
2023-03-12T05:50:16.319Z,79.50
2023-03-12T05:52:47.408Z,79.30
2023-03-12T05:55:15.254Z,79.50
2023-03-12T05:57:50.362Z,79.40
2023-03-12T06:00:19.279Z,79.50
2023-03-12T06:02:51.544Z,79.30
2023-03-12T06:05:35.868Z,79.00
2023-03-12T06:08:04.470Z,78.70
2023-03-12T06:10:32.923Z,79.70
2023-03-12T06:13:03.539Z,80.00
2023-03-12T06:15:33.620Z,79.90
2023-03-12T06:18:05.357Z,74.70
2023-03-12T06:20:39.301Z,78.40
2023-03-12T06:23:12.155Z,75.70
2023-03-12T06:25:40.033Z,75.50
2023-03-12T06:28:07.883Z,81.20
2023-03-12T06:30:38.521Z,81.70
2023-03-12T06:33:08.932Z,81.70
2023-03-12T06:35:38.973Z,80.40
2023-03-12T06:38:17.895Z,80.10
2023-03-12T06:40:53.914Z,82.00
2023-03-12T06:43:25.304Z,81.70
2023-03-12T06:45:54.956Z,81.30
2023-03-12T06:48:25.279Z,79.20
2023-03-12T06:50:56.947Z,80.90
2023-03-12T06:53:27.623Z,80.50
2023-03-12T06:55:55.529Z,80.90
2023-03-12T06:58:23.465Z,80.90
2023-03-12T07:00:51.490Z,80.70
2023-03-12T07:03:19.406Z,74.50
2023-03-12T07:05:50.159Z,74.60
2023-03-12T07:08:18.630Z,76.10
2023-03-12T07:10:49.630Z,71.30
2023-03-12T07:13:24.901Z,77.50
2023-03-12T07:15:55.601Z,77.80
2023-03-12T07:18:23.484Z,77.80
2023-03-12T07:20:53.825Z,77.80
2023-03-12T07:23:25.066Z,77.40
2023-03-12T07:25:53.445Z,75.90
2023-03-12T07:28:24.386Z,77.70
2023-03-12T07:30:52.248Z,77.00
2023-03-12T07:33:22.335Z,68.90
2023-03-12T07:35:52.182Z,79.20
2023-03-12T07:38:22.920Z,78.50
2023-03-12T07:40:52.585Z,79.00
2023-03-12T07:43:21.828Z,80.60
2023-03-12T07:45:50.260Z,80.40
2023-03-12T07:48:24.370Z,79.80
2023-03-12T07:51:07.873Z,79.30
2023-03-12T07:53:35.757Z,79.50
2023-03-12T07:56:03.718Z,79.30
2023-03-12T07:58:39.072Z,77.80
2023-03-12T08:01:09.987Z,78.30
2023-03-12T08:03:39.002Z,80.00
2023-03-12T08:06:12.026Z,78.90
2023-03-12T08:08:45.914Z,76.30
2023-03-12T08:11:16.843Z,74.70
2023-03-12T08:13:47.813Z,73.70
2023-03-12T08:16:15.734Z,74.30
2023-03-12T08:18:46.761Z,75.40
2023-03-12T08:21:24.149Z,74.60
2023-03-12T08:23:56.927Z,73.10
2023-03-12T08:26:30.457Z,72.30
2023-03-12T08:29:01.421Z,72.10
2023-03-12T08:31:29.486Z,72.80
2023-03-12T08:34:00.189Z,73.80
2023-03-12T08:36:32.511Z,75.20
2023-03-12T08:39:00.409Z,75.50
2023-03-12T08:41:30.069Z,76.50
2023-03-12T08:43:57.941Z,76.80
2023-03-12T08:46:42.934Z,77.00
2023-03-12T08:49:10.836Z,76.80
2023-03-12T08:51:46.223Z,77.40
2023-03-12T08:54:14.113Z,77.50
2023-03-12T08:56:43.627Z,77.60
2023-03-12T08:59:15.052Z,77.70
2023-03-12T09:01:45.954Z,77.60
2023-03-12T09:04:13.840Z,77.80
2023-03-12T09:06:48.714Z,78.00
2023-03-12T09:09:16.594Z,78.20
2023-03-12T09:11:55.104Z,78.30
2023-03-12T09:15:01.466Z,78.30
2023-03-12T09:17:13.320Z,78.60
2023-03-12T09:19:43.676Z,78.60
2023-03-12T09:22:12.870Z,78.70
2023-03-12T09:24:50.012Z,78.60
2023-03-12T09:27:20.684Z,77.90
2023-03-12T09:29:59.647Z,79.10
2023-03-12T09:32:30.986Z,79.20
2023-03-12T09:35:01.895Z,79.60
2023-03-12T09:37:35.517Z,79.40
2023-03-12T09:40:07.774Z,79.30
2023-03-12T09:42:52.034Z,79.70
2023-03-12T09:45:25.604Z,79.60
2023-03-12T09:47:55.401Z,79.90
2023-03-12T09:50:28.190Z,80.00
2023-03-12T09:53:02.278Z,80.10
2023-03-12T09:55:36.663Z,80.20
2023-03-12T09:58:04.872Z,80.40
2023-03-12T10:00:36.249Z,80.40
2023-03-12T10:03:19.763Z,80.60
2023-03-12T10:06:04.458Z,80.60
2023-03-12T10:08:57.019Z,80.70
2023-03-12T10:11:40.114Z,80.70
2023-03-12T10:14:25.334Z,80.70
2023-03-12T10:17:07.707Z,80.70
2023-03-12T10:19:56.884Z,80.70
2023-03-12T10:22:46.014Z,80.80
2023-03-12T10:25:35.474Z,81.20
2023-03-12T10:28:22.421Z,81.30
2023-03-12T10:30:57.719Z,81.10
2023-03-12T10:33:43.638Z,81.20
2023-03-12T10:36:17.848Z,81.30
2023-03-12T10:38:45.782Z,81.40
2023-03-12T10:41:23.021Z,81.60
2023-03-12T10:43:51.350Z,81.60
2023-03-12T10:46:48.139Z,81.70
2023-03-12T10:49:34.759Z,81.80
2023-03-12T10:52:06.564Z,82.00
2023-03-12T10:54:38.263Z,82.20
2023-03-12T10:57:08.417Z,82.30
2023-03-12T10:59:38.162Z,82.50
2023-03-12T11:02:32.777Z,82.60
2023-03-12T11:05:02.323Z,82.70
2023-03-12T11:07:31.686Z,82.80
2023-03-12T11:10:24.427Z,83.00
2023-03-12T11:13:03.857Z,83.10
2023-03-12T11:15:42.403Z,83.40
2023-03-12T11:18:40.416Z,83.70
2023-03-12T11:21:19.094Z,84.00
2023-03-12T11:24:07.696Z,84.20
2023-03-12T11:26:51.279Z,84.20
2023-03-12T11:29:27.935Z,83.80
2023-03-12T11:32:03.303Z,85.50
2023-03-12T11:34:34.199Z,84.70
2023-03-12T11:37:15.041Z,85.30
2023-03-12T11:40:16.819Z,85.20
2023-03-12T11:43:03.102Z,85.90
2023-03-12T11:45:46.316Z,85.50
2023-03-12T11:51:25.358Z,85.80
2023-03-12T11:54:17.512Z,86.40
2023-03-12T11:56:47.991Z,86.40
2023-03-12T11:59:42.308Z,86.40
2023-03-12T12:02:41.493Z,86.90
2023-03-12T12:05:42.387Z,87.70
2023-03-12T12:08:33.975Z,87.70
2023-03-12T12:11:16.021Z,87.20
2023-03-12T12:13:55.329Z,87.20
2023-03-12T12:16:50.480Z,87.00
2023-03-12T12:19:43.283Z,87.50
2023-03-12T12:22:30.573Z,87.60
2023-03-12T12:25:26.455Z,87.50
2023-03-12T12:28:18.619Z,87.50
2023-03-12T12:31:03.954Z,87.90
2023-03-12T12:34:00.696Z,88.30
2023-03-12T12:36:35.230Z,88.30
2023-03-12T12:39:10.923Z,88.60
2023-03-12T12:41:42.424Z,88.40
2023-03-12T12:44:22.812Z,87.80
2023-03-12T12:47:01.141Z,87.90
2023-03-12T12:49:48.831Z,88.10
2023-03-12T12:52:20.952Z,88.00
2023-03-12T12:54:57.550Z,87.80
2023-03-12T12:57:46.806Z,87.70
2023-03-12T13:00:42.335Z,88.00
2023-03-12T13:03:18.207Z,87.90
2023-03-12T13:05:54.205Z,88.20
2023-03-12T13:09:13.519Z,88.10
2023-03-12T13:11:44.990Z,88.60
2023-03-12T13:14:46.422Z,88.40
2023-03-12T13:17:31.628Z,88.40
2023-03-12T13:20:13.342Z,88.20
2023-03-12T13:23:13.428Z,88.10
2023-03-12T13:26:04.320Z,88.30
2023-03-12T13:29:12.391Z,88.30
2023-03-12T13:31:43.049Z,88.50
2023-03-12T13:34:55.940Z,88.60
2023-03-12T13:38:01.687Z,90.20
2023-03-12T13:41:05.394Z,91.10
2023-03-12T13:43:51.919Z,91.00
2023-03-12T13:46:37.193Z,90.90
2023-03-12T13:49:14.713Z,90.70
2023-03-12T13:52:25.875Z,90.60
2023-03-12T13:55:01.926Z,90.40
2023-03-12T13:57:43.282Z,90.30
2023-03-12T14:00:18.155Z,90.30
2023-03-12T14:03:04.968Z,90.10
2023-03-12T14:08:52.602Z,90.00
2023-03-12T14:11:47.174Z,90.10
2023-03-12T14:14:57.361Z,90.10
2023-03-12T14:17:38.852Z,90.10
2023-03-12T14:20:17.655Z,90.00
2023-03-12T14:22:51.978Z,90.00
2023-03-12T14:25:30.558Z,90.10
2023-03-12T14:28:22.698Z,90.20
2023-03-12T14:30:59.841Z,90.10
2023-03-12T14:33:33.003Z,90.20
2023-03-12T14:36:07.661Z,90.20
2023-03-12T14:38:38.664Z,90.20
2023-03-12T14:41:13.332Z,90.60
2023-03-12T14:43:43.217Z,90.30
2023-03-12T14:46:20.650Z,90.40
2023-03-12T14:48:53.358Z,90.40
2023-03-12T14:51:24.796Z,90.50
2023-03-12T14:54:24.997Z,90.40
2023-03-12T14:56:55.908Z,90.20
2023-03-12T14:59:30.963Z,90.20
2023-03-12T15:02:02.926Z,90.20
2023-03-12T15:04:32.305Z,90.30
2023-03-12T15:07:05.000Z,90.20
2023-03-12T15:09:35.604Z,90.20
2023-03-12T15:12:19.221Z,90.30
2023-03-12T15:14:56.327Z,90.30
2023-03-12T15:17:29.203Z,90.20
2023-03-12T15:20:02.315Z,90.20
2023-03-12T15:22:30.327Z,90.30
2023-03-12T15:25:04.674Z,90.30
2023-03-12T15:27:34.564Z,90.40
2023-03-12T15:30:24.324Z,90.40
2023-03-12T15:33:25.528Z,90.40
2023-03-12T15:36:07.860Z,90.30
2023-03-12T15:38:38.211Z,90.50
2023-03-12T15:41:28.182Z,90.40
2023-03-12T15:43:58.236Z,90.40
2023-03-12T15:46:27.502Z,90.20
2023-03-12T15:48:58.860Z,90.40
2023-03-12T15:51:36.353Z,90.40
2023-03-12T15:54:22.964Z,90.20
2023-03-12T15:56:50.826Z,90.40
2023-03-12T15:59:25.745Z,90.40
2023-03-12T16:01:55.187Z,90.60
2023-03-12T16:04:27.341Z,90.60
2023-03-12T16:06:55.350Z,91.00
2023-03-12T16:09:28.073Z,90.90
2023-03-12T16:11:59.164Z,90.90
2023-03-12T16:14:41.615Z,91.00
2023-03-12T16:17:14.355Z,91.00
2023-03-12T16:19:45.831Z,90.90
2023-03-12T16:22:20.333Z,90.90
2023-03-12T16:24:48.189Z,90.60
2023-03-12T16:27:32.542Z,90.60
2023-03-12T16:30:00.932Z,90.10
2023-03-12T16:32:28.836Z,90.60
2023-03-12T16:35:00.969Z,90.60
2023-03-12T16:37:29.167Z,90.20
2023-03-12T16:40:08.378Z,90.70
2023-03-12T16:42:36.715Z,90.70
2023-03-12T16:45:05.297Z,90.50
2023-03-12T16:47:40.027Z,90.50
2023-03-12T16:50:21.120Z,90.50
2023-03-12T16:52:51.050Z,90.00
2023-03-12T16:55:27.999Z,90.40
2023-03-12T16:57:59.412Z,90.40
2023-03-12T17:00:30.299Z,90.20
2023-03-12T17:02:59.142Z,88.80
2023-03-12T17:05:30.318Z,90.40
2023-03-12T17:08:01.272Z,89.70
2023-03-12T17:10:29.184Z,90.30
2023-03-12T17:13:03.208Z,90.40
2023-03-12T17:15:33.271Z,90.10
2023-03-12T17:18:03.378Z,90.20
2023-03-12T17:20:36.107Z,90.20
2023-03-12T17:23:04.718Z,90.30
2023-03-12T17:25:35.208Z,89.10
2023-03-12T17:28:06.400Z,90.40
2023-03-12T17:30:35.257Z,90.20
2023-03-12T17:33:10.142Z,90.10
2023-03-12T17:35:39.752Z,89.80
2023-03-12T17:38:14.205Z,90.10
2023-03-12T17:40:45.258Z,90.10
2023-03-12T17:43:13.302Z,90.10
2023-03-12T17:45:55.176Z,86.70
2023-03-12T17:48:37.945Z,90.10
2023-03-12T17:51:11.240Z,90.10
2023-03-12T17:53:44.330Z,90.00
2023-03-12T17:56:12.528Z,89.90
2023-03-12T17:58:43.628Z,90.00
2023-03-12T18:01:14.675Z,89.90
2023-03-12T18:03:51.100Z,89.70
2023-03-12T18:06:26.432Z,90.00
2023-03-12T18:08:54.370Z,87.40
2023-03-12T18:11:22.370Z,90.00
2023-03-12T18:13:56.416Z,90.00
2023-03-12T18:16:27.510Z,90.00
2023-03-12T18:18:58.452Z,89.80
2023-03-12T18:21:27.773Z,89.70
2023-03-12T18:24:02.055Z,89.70
2023-03-12T18:26:38.914Z,89.70
2023-03-12T18:29:06.776Z,89.60
2023-03-12T18:31:34.654Z,89.50
2023-03-12T18:34:05.649Z,89.60
2023-03-12T18:36:34.871Z,89.60
2023-03-12T18:39:06.447Z,88.10
2023-03-12T18:41:35.332Z,89.60
2023-03-12T18:44:03.851Z,89.60
2023-03-12T18:46:34.600Z,89.60
2023-03-12T18:49:05.275Z,89.70
2023-03-12T18:51:34.862Z,89.60
2023-03-12T18:54:05.249Z,89.60
2023-03-12T18:56:33.103Z,89.50
2023-03-12T18:59:03.431Z,89.40
2023-03-12T19:01:34.197Z,89.30
2023-03-12T19:04:05.553Z,89.30
2023-03-12T19:06:50.781Z,89.50
2023-03-12T19:09:19.654Z,88.90
2023-03-12T19:11:50.483Z,89.40
2023-03-12T19:14:18.341Z,89.50
2023-03-12T19:16:46.216Z,89.20
2023-03-12T19:19:14.077Z,89.50
2023-03-12T19:21:45.549Z,89.30
2023-03-12T19:24:19.448Z,89.60
2023-03-12T19:26:52.983Z,89.70
2023-03-12T19:29:20.840Z,89.70
2023-03-12T19:31:51.211Z,89.60
2023-03-12T19:34:19.915Z,89.70
2023-03-12T19:36:57.973Z,89.80
2023-03-12T19:39:26.051Z,89.80
2023-03-12T19:42:01.328Z,89.70
2023-03-12T19:44:36.130Z,89.70
2023-03-12T19:47:05.729Z,89.80
2023-03-12T19:49:36.677Z,89.80
2023-03-12T19:52:05.910Z,89.90
2023-03-12T19:54:33.850Z,89.90
2023-03-12T19:57:04.939Z,89.90
2023-03-12T19:59:32.842Z,90.00
2023-03-12T20:02:05.949Z,90.00
2023-03-12T20:04:39.357Z,89.80
2023-03-12T20:07:08.901Z,90.00
2023-03-12T20:09:37.208Z,90.00
2023-03-12T20:12:05.587Z,90.00
2023-03-12T20:14:36.159Z,90.00
2023-03-12T20:17:03.992Z,90.00
2023-03-12T20:19:32.638Z,89.90
2023-03-12T20:22:08.061Z,89.90
2023-03-12T20:24:36.307Z,89.90
2023-03-12T20:27:07.107Z,89.30
2023-03-12T20:29:35.048Z,90.00
2023-03-12T20:32:02.959Z,90.00
2023-03-12T20:34:33.048Z,90.00
2023-03-12T20:37:10.499Z,89.90
2023-03-12T20:40:06.449Z,90.00
2023-03-12T20:42:37.376Z,90.00
2023-03-12T20:45:05.770Z,90.00
2023-03-12T20:47:40.322Z,90.00
2023-03-12T20:50:08.878Z,90.00
2023-03-12T20:52:36.736Z,90.00
2023-03-12T20:55:09.160Z,90.00
2023-03-12T20:57:40.059Z,90.00
2023-03-12T21:00:14.447Z,90.00
2023-03-12T21:02:42.360Z,89.90
2023-03-12T21:05:14.496Z,89.90
2023-03-12T21:07:42.592Z,90.00
2023-03-12T21:10:13.604Z,90.00
2023-03-12T21:12:44.634Z,90.00
2023-03-12T21:15:13.258Z,90.00
2023-03-12T21:17:43.009Z,90.00
2023-03-12T21:20:14.210Z,90.00
2023-03-12T21:22:46.784Z,90.00
2023-03-12T21:25:16.509Z,90.00
2023-03-12T21:27:51.174Z,90.10
2023-03-12T21:30:20.205Z,90.10
2023-03-12T21:32:57.617Z,90.20
2023-03-12T21:35:31.543Z,90.30
2023-03-12T21:37:59.689Z,90.30
2023-03-12T21:40:29.022Z,90.40
2023-03-12T21:42:56.950Z,90.40
2023-03-12T21:45:27.659Z,90.40
2023-03-12T21:48:05.665Z,90.40
2023-03-12T21:50:33.564Z,90.40
2023-03-12T21:53:11.645Z,90.40
2023-03-12T21:55:55.558Z,90.50
2023-03-12T21:58:26.828Z,90.30
2023-03-12T22:01:05.732Z,90.40
2023-03-12T22:03:37.389Z,90.50
2023-03-12T22:06:06.440Z,90.40
2023-03-12T22:08:34.606Z,90.50
2023-03-12T22:11:11.142Z,90.50
2023-03-12T22:13:42.415Z,90.50
2023-03-12T22:16:17.062Z,90.50
2023-03-12T22:18:46.599Z,90.50
2023-03-12T22:21:16.313Z,90.40
2023-03-12T22:23:44.355Z,90.50
2023-03-12T22:26:27.514Z,90.50
2023-03-12T22:28:57.872Z,90.50
2023-03-12T22:31:27.409Z,90.50
2023-03-12T22:33:58.194Z,90.60
2023-03-12T22:36:31.054Z,90.60
2023-03-12T22:38:59.052Z,90.50
2023-03-12T22:41:34.540Z,90.50
2023-03-12T22:44:05.217Z,90.60
2023-03-12T22:46:36.792Z,90.60
2023-03-12T22:49:18.052Z,90.60
2023-03-12T22:51:48.995Z,90.60
2023-03-12T22:54:19.007Z,90.60
2023-03-12T22:56:53.529Z,90.50
2023-03-12T22:59:27.190Z,90.60
2023-03-12T23:02:00.324Z,90.60
2023-03-12T23:04:28.551Z,90.60
2023-03-12T23:07:13.387Z,90.60
2023-03-12T23:09:48.598Z,90.60
2023-03-12T23:12:17.797Z,90.50
2023-03-12T23:14:51.063Z,90.60
2023-03-12T23:17:18.960Z,90.60
2023-03-12T23:19:49.416Z,90.60
2023-03-12T23:22:20.305Z,90.70
2023-03-12T23:24:48.170Z,90.70
2023-03-12T23:27:40.114Z,90.60
2023-03-12T23:30:20.223Z,90.70
2023-03-12T23:32:50.514Z,90.60
2023-03-12T23:35:18.734Z,90.70
2023-03-12T23:37:49.208Z,90.70
2023-03-12T23:40:17.861Z,90.60
2023-03-12T23:42:47.133Z,90.60
2023-03-12T23:45:15.061Z,90.80
2023-03-12T23:47:42.926Z,90.60
2023-03-12T23:50:16.746Z,90.70
2023-03-12T23:52:50.370Z,90.70
2023-03-12T23:55:27.276Z,90.80
2023-03-12T23:57:56.515Z,90.70
